sensor_id;sensor_type;location;lat;lon;timestamp;pressure;altitude;pressure_sealevel;temperature;humidity
6194;BME280;3130;41.564;23.280;2024-01-25T00:00:27;99500.19;;;3.67;79.21
6194;BME280;3130;41.564;23.280;2024-01-25T00:02:54;99489.41;;;3.57;79.62
6194;BME280;3130;41.564;23.280;2024-01-25T00:05:21;99413.53;;;3.15;79.95
6194;BME280;3130;41.564;23.280;2024-01-25T00:07:49;99495.59;;;3.46;80.40
6194;BME280;3130;41.564;23.280;2024-01-25T00:10:18;99520.13;;;3.44;81.02
6194;BME280;3130;41.564;23.280;2024-01-25T00:12:45;99520.13;;;3.44;81.64
6194;BME280;3130;41.564;23.280;2024-01-25T00:15:13;99518.22;;;3.55;81.13
6194;BME280;3130;41.564;23.280;2024-01-25T00:17:41;99513.72;;;3.66;80.17
6194;BME280;3130;41.564;23.280;2024-01-25T00:20:10;99495.97;;;3.66;80.37
6194;BME280;3130;41.564;23.280;2024-01-25T00:22:37;99531.81;;;3.87;78.58
6194;BME280;3130;41.564;23.280;2024-01-25T00:25:05;99516.94;;;3.74;78.80
6194;BME280;3130;41.564;23.280;2024-01-25T00:27:34;99369.16;;;2.99;78.54
6194;BME280;3130;41.564;23.280;2024-01-25T00:30:02;99538.72;;;4.17;79.04
6194;BME280;3130;41.564;23.280;2024-01-25T00:32:30;99542.47;;;4.36;78.79
6194;BME280;3130;41.564;23.280;2024-01-25T00:34:58;99560.63;;;4.53;77.85
6194;BME280;3130;41.564;23.280;2024-01-25T00:37:25;99564.72;;;4.58;76.40
6194;BME280;3130;41.564;23.280;2024-01-25T00:39:53;99537.44;;;4.33;75.90
6194;BME280;3130;41.564;23.280;2024-01-25T00:42:22;99537.91;;;4.15;76.76
6194;BME280;3130;41.564;23.280;2024-01-25T00:44:52;99552.16;;;4.20;77.05
6194;BME280;3130;41.564;23.280;2024-01-25T00:47:20;99545.09;;;3.96;78.46
6194;BME280;3130;41.564;23.280;2024-01-25T00:49:47;99544.94;;;4.04;78.61
6194;BME280;3130;41.564;23.280;2024-01-25T00:52:15;99534.81;;;4.02;77.94
6194;BME280;3130;41.564;23.280;2024-01-25T00:54:43;99548.50;;;3.95;79.05
6194;BME280;3130;41.564;23.280;2024-01-25T00:57:11;99539.97;;;3.99;79.07
6194;BME280;3130;41.564;23.280;2024-01-25T00:59:39;99539.97;;;3.99;79.04
6194;BME280;3130;41.564;23.280;2024-01-25T01:02:11;99530.84;;;3.93;79.94
6194;BME280;3130;41.564;23.280;2024-01-25T01:04:39;99525.88;;;3.88;79.82
6194;BME280;3130;41.564;23.280;2024-01-25T01:07:07;99547.91;;;3.86;79.90
6194;BME280;3130;41.564;23.280;2024-01-25T01:09:35;99543.72;;;3.84;80.52
6194;BME280;3130;41.564;23.280;2024-01-25T01:12:03;99479.63;;;3.42;81.67
6194;BME280;3130;41.564;23.280;2024-01-25T01:14:30;99522.09;;;3.69;82.24
6194;BME280;3130;41.564;23.280;2024-01-25T01:16:57;99514.69;;;3.60;84.15
6194;BME280;3130;41.564;23.280;2024-01-25T01:19:26;99526.63;;;3.57;84.38
6194;BME280;3130;41.564;23.280;2024-01-25T01:21:53;99520.63;;;3.59;84.29
6194;BME280;3130;41.564;23.280;2024-01-25T01:24:20;99459.72;;;3.26;84.53
6194;BME280;3130;41.564;23.280;2024-01-25T01:26:47;99482.22;;;3.39;84.53
6194;BME280;3130;41.564;23.280;2024-01-25T01:29:16;99484.47;;;3.53;83.75
6194;BME280;3130;41.564;23.280;2024-01-25T01:31:44;99496.84;;;3.65;83.97
6194;BME280;3130;41.564;23.280;2024-01-25T01:34:11;99513.59;;;3.72;83.80
6194;BME280;3130;41.564;23.280;2024-01-25T01:36:40;99507.59;;;3.74;84.78
6194;BME280;3130;41.564;23.280;2024-01-25T01:39:08;99511.88;;;3.72;85.43
6194;BME280;3130;41.564;23.280;2024-01-25T01:41:35;99506.81;;;3.72;85.51
6194;BME280;3130;41.564;23.280;2024-01-25T01:44:02;99415.59;;;3.36;85.84
6194;BME280;3130;41.564;23.280;2024-01-25T01:46:32;99406.88;;;3.46;85.01
6194;BME280;3130;41.564;23.280;2024-01-25T01:49:02;99489.91;;;4.06;83.75
6194;BME280;3130;41.564;23.280;2024-01-25T01:51:31;99499.09;;;4.11;82.77
6194;BME280;3130;41.564;23.280;2024-01-25T01:54:01;99436.47;;;3.79;81.85
6194;BME280;3130;41.564;23.280;2024-01-25T01:56:29;99499.28;;;4.04;82.36
6194;BME280;3130;41.564;23.280;2024-01-25T01:58:57;99482.47;;;4.00;82.77
6194;BME280;3130;41.564;23.280;2024-01-25T02:01:25;99475.53;;;4.06;82.84
6194;BME280;3130;41.564;23.280;2024-01-25T02:03:52;99452.03;;;3.98;82.76
6194;BME280;3130;41.564;23.280;2024-01-25T02:06:19;99461.78;;;4.13;82.51
6194;BME280;3130;41.564;23.280;2024-01-25T02:08:47;99324.31;;;3.37;81.21
6194;BME280;3130;41.564;23.280;2024-01-25T02:11:18;99449.84;;;4.18;81.05
6194;BME280;3130;41.564;23.280;2024-01-25T02:13:45;99448.94;;;4.21;80.64
6194;BME280;3130;41.564;23.280;2024-01-25T02:16:13;99443.88;;;4.21;80.24
6194;BME280;3130;41.564;23.280;2024-01-25T02:18:41;99455.47;;;3.64;81.12
6194;BME280;3130;41.564;23.280;2024-01-25T02:21:09;99471.91;;;3.47;82.21
6194;BME280;3130;41.564;23.280;2024-01-25T02:23:37;99454.06;;;3.15;84.50
6194;BME280;3130;41.564;23.280;2024-01-25T02:26:05;99430.47;;;3.13;83.73
6194;BME280;3130;41.564;23.280;2024-01-25T02:28:32;99441.50;;;3.47;84.47
6194;BME280;3130;41.564;23.280;2024-01-25T02:31:01;99443.56;;;3.66;84.72
6194;BME280;3130;41.564;23.280;2024-01-25T02:33:29;99457.72;;;3.40;84.24
6194;BME280;3130;41.564;23.280;2024-01-25T02:35:56;99457.44;;;3.15;86.01
6194;BME280;3130;41.564;23.280;2024-01-25T02:38:23;99443.41;;;2.99;87.50
6194;BME280;3130;41.564;23.280;2024-01-25T02:40:52;99431.66;;;2.98;88.02
6194;BME280;3130;41.564;23.280;2024-01-25T02:43:20;99435.72;;;3.42;87.44
6194;BME280;3130;41.564;23.280;2024-01-25T02:45:48;99436.06;;;3.62;87.14
6194;BME280;3130;41.564;23.280;2024-01-25T02:48:15;99451.81;;;3.76;86.46
6194;BME280;3130;41.564;23.280;2024-01-25T02:50:42;99448.00;;;3.92;85.67
6194;BME280;3130;41.564;23.280;2024-01-25T02:53:10;99451.75;;;4.10;84.27
6194;BME280;3130;41.564;23.280;2024-01-25T02:55:37;99470.72;;;4.28;83.20
6194;BME280;3130;41.564;23.280;2024-01-25T02:58:06;99477.53;;;4.27;82.27
6194;BME280;3130;41.564;23.280;2024-01-25T03:00:33;99464.16;;;4.21;82.52
6194;BME280;3130;41.564;23.280;2024-01-25T03:03:00;99449.41;;;3.70;84.18
6194;BME280;3130;41.564;23.280;2024-01-25T03:05:27;99442.19;;;3.53;84.18
6194;BME280;3130;41.564;23.280;2024-01-25T03:07:54;99437.41;;;3.41;84.41
6194;BME280;3130;41.564;23.280;2024-01-25T03:10:23;99404.59;;;3.35;84.53
6194;BME280;3130;41.564;23.280;2024-01-25T03:12:50;99449.88;;;3.84;84.24
6194;BME280;3130;41.564;23.280;2024-01-25T03:15:19;99446.16;;;3.98;83.82
6194;BME280;3130;41.564;23.280;2024-01-25T03:17:46;99439.75;;;3.84;84.53
6194;BME280;3130;41.564;23.280;2024-01-25T03:20:14;99403.75;;;3.70;85.05
6194;BME280;3130;41.564;23.280;2024-01-25T03:22:41;99408.91;;;3.98;84.38
6194;BME280;3130;41.564;23.280;2024-01-25T03:25:09;99372.66;;;3.95;84.41
6194;BME280;3130;41.564;23.280;2024-01-25T03:27:37;99380.78;;;4.07;83.79
6194;BME280;3130;41.564;23.280;2024-01-25T03:30:05;99373.47;;;3.95;84.24
6194;BME280;3130;41.564;23.280;2024-01-25T03:32:34;99337.31;;;4.19;83.33
6194;BME280;3130;41.564;23.280;2024-01-25T03:35:02;99203.81;;;3.56;82.97
6194;BME280;3130;41.564;23.280;2024-01-25T03:37:29;99344.19;;;4.45;82.34
6194;BME280;3130;41.564;23.280;2024-01-25T03:39:56;99326.50;;;4.13;82.22
6194;BME280;3130;41.564;23.280;2024-01-25T03:42:23;99366.69;;;4.28;83.12
6194;BME280;3130;41.564;23.280;2024-01-25T03:44:52;99370.59;;;4.39;82.68
6194;BME280;3130;41.564;23.280;2024-01-25T03:47:19;99368.69;;;4.47;82.05
6194;BME280;3130;41.564;23.280;2024-01-25T03:49:48;99368.69;;;4.46;82.12
6194;BME280;3130;41.564;23.280;2024-01-25T03:52:15;99372.16;;;4.43;81.67
6194;BME280;3130;41.564;23.280;2024-01-25T03:54:42;99375.66;;;4.39;81.83
6194;BME280;3130;41.564;23.280;2024-01-25T03:57:09;99380.88;;;4.04;82.26
6194;BME280;3130;41.564;23.280;2024-01-25T03:59:37;99355.91;;;3.90;83.68
6194;BME280;3130;41.564;23.280;2024-01-25T04:02:04;99366.50;;;4.03;82.81
6194;BME280;3130;41.564;23.280;2024-01-25T04:04:31;99359.06;;;3.97;82.80
6194;BME280;3130;41.564;23.280;2024-01-25T04:07:00;99352.84;;;3.44;84.93
6194;BME280;3130;41.564;23.280;2024-01-25T04:09:27;99351.47;;;3.32;86.28
6194;BME280;3130;41.564;23.280;2024-01-25T04:11:55;99347.03;;;3.05;86.63
6194;BME280;3130;41.564;23.280;2024-01-25T04:14:22;99349.97;;;2.89;87.69
6194;BME280;3130;41.564;23.280;2024-01-25T04:16:49;99357.13;;;2.71;89.58
6194;BME280;3130;41.564;23.280;2024-01-25T04:19:17;99359.66;;;2.71;89.11
6194;BME280;3130;41.564;23.280;2024-01-25T04:21:44;99370.97;;;2.55;90.51
6194;BME280;3130;41.564;23.280;2024-01-25T04:24:13;99359.41;;;2.45;91.66
6194;BME280;3130;41.564;23.280;2024-01-25T04:26:40;99375.25;;;2.53;91.13
6194;BME280;3130;41.564;23.280;2024-01-25T04:29:07;99354.97;;;2.54;91.32
6194;BME280;3130;41.564;23.280;2024-01-25T04:31:34;99374.97;;;3.02;90.25
6194;BME280;3130;41.564;23.280;2024-01-25T04:34:02;99320.38;;;2.91;89.27
6194;BME280;3130;41.564;23.280;2024-01-25T04:36:29;99357.53;;;3.25;88.63
6194;BME280;3130;41.564;23.280;2024-01-25T04:38:56;99328.00;;;2.90;88.13
6194;BME280;3130;41.564;23.280;2024-01-25T04:41:25;99346.25;;;3.03;88.17
6194;BME280;3130;41.564;23.280;2024-01-25T04:43:52;99262.78;;;2.26;89.27
6194;BME280;3130;41.564;23.280;2024-01-25T04:46:19;99346.91;;;2.75;89.81
6194;BME280;3130;41.564;23.280;2024-01-25T04:48:46;99349.34;;;2.42;91.05
6194;BME280;3130;41.564;23.280;2024-01-25T04:51:15;99194.66;;;1.40;91.83
6194;BME280;3130;41.564;23.280;2024-01-25T04:53:43;99355.09;;;2.47;91.88
6194;BME280;3130;41.564;23.280;2024-01-25T04:56:10;99361.31;;;2.72;91.75
6194;BME280;3130;41.564;23.280;2024-01-25T04:58:39;99365.00;;;2.95;90.85
6194;BME280;3130;41.564;23.280;2024-01-25T05:01:06;99273.78;;;2.25;91.25
6194;BME280;3130;41.564;23.280;2024-01-25T05:03:34;99372.16;;;2.78;91.00
6194;BME280;3130;41.564;23.280;2024-01-25T05:06:01;99359.09;;;2.58;91.22
6194;BME280;3130;41.564;23.280;2024-01-25T05:08:28;99370.69;;;2.68;90.84
6194;BME280;3130;41.564;23.280;2024-01-25T05:10:55;99383.69;;;2.52;91.01
6194;BME280;3130;41.564;23.280;2024-01-25T05:13:23;99353.59;;;2.38;91.27
6194;BME280;3130;41.564;23.280;2024-01-25T05:15:52;99381.75;;;2.64;90.76
6194;BME280;3130;41.564;23.280;2024-01-25T05:18:19;99367.53;;;2.57;90.47
6194;BME280;3130;41.564;23.280;2024-01-25T05:20:46;99380.50;;;2.82;89.87
6194;BME280;3130;41.564;23.280;2024-01-25T05:23:13;99390.97;;;3.04;89.81
6194;BME280;3130;41.564;23.280;2024-01-25T05:25:41;99352.16;;;3.04;89.19
6194;BME280;3130;41.564;23.280;2024-01-25T05:28:08;99397.31;;;2.86;89.19
6194;BME280;3130;41.564;23.280;2024-01-25T05:30:36;99337.69;;;2.73;89.12
6194;BME280;3130;41.564;23.280;2024-01-25T05:33:04;99403.91;;;3.29;88.28
6194;BME280;3130;41.564;23.280;2024-01-25T05:35:32;99406.94;;;3.43;88.07
6194;BME280;3130;41.564;23.280;2024-01-25T05:38:00;99400.47;;;3.66;86.73
6194;BME280;3130;41.564;23.280;2024-01-25T05:40:27;99402.81;;;3.74;86.57
6194;BME280;3130;41.564;23.280;2024-01-25T05:42:54;99398.25;;;3.18;87.15
6194;BME280;3130;41.564;23.280;2024-01-25T05:45:22;99381.34;;;2.82;87.90
6194;BME280;3130;41.564;23.280;2024-01-25T05:47:50;99376.47;;;2.75;88.84
6194;BME280;3130;41.564;23.280;2024-01-25T05:50:19;99413.81;;;3.03;88.43
6194;BME280;3130;41.564;23.280;2024-01-25T05:52:46;99372.38;;;2.68;88.56
6194;BME280;3130;41.564;23.280;2024-01-25T05:55:13;99379.91;;;2.72;89.42
6194;BME280;3130;41.564;23.280;2024-01-25T05:57:42;99260.31;;;2.25;88.54
6194;BME280;3130;41.564;23.280;2024-01-25T06:00:11;99361.22;;;2.78;89.71
6194;BME280;3130;41.564;23.280;2024-01-25T06:02:40;99348.22;;;2.91;89.46
6194;BME280;3130;41.564;23.280;2024-01-25T06:05:09;99371.69;;;3.34;89.65
6194;BME280;3130;41.564;23.280;2024-01-25T06:07:38;99381.28;;;3.23;89.56
6194;BME280;3130;41.564;23.280;2024-01-25T06:10:06;99406.09;;;3.07;89.40
6194;BME280;3130;41.564;23.280;2024-01-25T06:12:34;99394.47;;;2.99;89.76
6194;BME280;3130;41.564;23.280;2024-01-25T06:15:01;99357.41;;;2.95;89.07
6194;BME280;3130;41.564;23.280;2024-01-25T06:17:28;99268.38;;;2.40;89.58
6194;BME280;3130;41.564;23.280;2024-01-25T06:19:56;99390.38;;;3.30;89.62
6194;BME280;3130;41.564;23.280;2024-01-25T06:22:23;99409.66;;;3.37;89.73
6194;BME280;3130;41.564;23.280;2024-01-25T06:24:52;99399.69;;;3.64;89.52
6194;BME280;3130;41.564;23.280;2024-01-25T06:27:19;99324.88;;;3.48;88.83
6194;BME280;3130;41.564;23.280;2024-01-25T06:29:46;99404.91;;;4.22;87.85
6194;BME280;3130;41.564;23.280;2024-01-25T06:32:14;99269.59;;;3.62;86.43
6194;BME280;3130;41.564;23.280;2024-01-25T06:34:41;99388.41;;;4.67;84.00
6194;BME280;3130;41.564;23.280;2024-01-25T06:37:08;99401.84;;;4.70;83.12
6194;BME280;3130;41.564;23.280;2024-01-25T06:39:37;99403.78;;;4.62;82.00
6194;BME280;3130;41.564;23.280;2024-01-25T06:42:06;99408.00;;;4.63;81.50
6194;BME280;3130;41.564;23.280;2024-01-25T06:44:34;99366.56;;;4.61;80.80
6194;BME280;3130;41.564;23.280;2024-01-25T06:47:01;99421.13;;;4.77;80.76
6194;BME280;3130;41.564;23.280;2024-01-25T06:49:28;99413.13;;;4.89;80.09
6194;BME280;3130;41.564;23.280;2024-01-25T06:51:56;99398.41;;;5.00;79.63
6194;BME280;3130;41.564;23.280;2024-01-25T06:54:23;99415.19;;;5.33;79.28
6194;BME280;3130;41.564;23.280;2024-01-25T06:56:50;99389.69;;;5.08;78.74
6194;BME280;3130;41.564;23.280;2024-01-25T06:59:19;99395.81;;;5.29;78.95
6194;BME280;3130;41.564;23.280;2024-01-25T07:01:46;99390.13;;;5.21;78.52
6194;BME280;3130;41.564;23.280;2024-01-25T07:04:14;99418.13;;;5.19;78.67
6194;BME280;3130;41.564;23.280;2024-01-25T07:06:41;99405.13;;;5.28;78.00
6194;BME280;3130;41.564;23.280;2024-01-25T07:09:08;99421.38;;;5.24;77.85
6194;BME280;3130;41.564;23.280;2024-01-25T07:11:37;99419.06;;;5.17;79.08
6194;BME280;3130;41.564;23.280;2024-01-25T07:14:04;99410.22;;;5.01;77.92
6194;BME280;3130;41.564;23.280;2024-01-25T07:16:34;99372.16;;;4.99;78.07
6194;BME280;3130;41.564;23.280;2024-01-25T07:19:01;99363.88;;;5.46;76.97
6194;BME280;3130;41.564;23.280;2024-01-25T07:21:29;99326.09;;;5.10;75.56
6194;BME280;3130;41.564;23.280;2024-01-25T07:23:59;99344.16;;;5.79;74.05
6194;BME280;3130;41.564;23.280;2024-01-25T07:26:27;99307.53;;;6.07;74.07
6194;BME280;3130;41.564;23.280;2024-01-25T07:28:56;99347.44;;;6.29;70.30
6194;BME280;3130;41.564;23.280;2024-01-25T07:31:24;99383.69;;;6.82;67.07
6194;BME280;3130;41.564;23.280;2024-01-25T07:33:54;99390.06;;;6.93;66.45
6194;BME280;3130;41.564;23.280;2024-01-25T07:36:21;99380.16;;;7.28;64.45
6194;BME280;3130;41.564;23.280;2024-01-25T07:38:49;99388.09;;;7.21;64.83
6194;BME280;3130;41.564;23.280;2024-01-25T07:41:17;99380.16;;;7.28;64.87
6194;BME280;3130;41.564;23.280;2024-01-25T07:43:45;99390.75;;;7.18;66.17
6194;BME280;3130;41.564;23.280;2024-01-25T07:46:12;99386.41;;;7.41;66.07
6194;BME280;3130;41.564;23.280;2024-01-25T07:48:41;99296.25;;;7.01;65.50
6194;BME280;3130;41.564;23.280;2024-01-25T07:51:13;99364.09;;;7.46;66.40
6194;BME280;3130;41.564;23.280;2024-01-25T07:53:40;99362.94;;;7.95;65.05
6194;BME280;3130;41.564;23.280;2024-01-25T07:56:08;99362.56;;;8.42;63.43
6194;BME280;3130;41.564;23.280;2024-01-25T07:58:37;99373.13;;;8.53;63.25
6194;BME280;3130;41.564;23.280;2024-01-25T08:01:05;99316.28;;;8.09;62.46
6194;BME280;3130;41.564;23.280;2024-01-25T08:03:33;99388.06;;;8.03;66.16
6194;BME280;3130;41.564;23.280;2024-01-25T08:06:02;99384.13;;;8.55;67.89
6194;BME280;3130;41.564;23.280;2024-01-25T08:08:31;99367.91;;;11.08;60.81
6194;BME280;3130;41.564;23.280;2024-01-25T08:10:59;99346.97;;;14.41;47.20
6194;BME280;3130;41.564;23.280;2024-01-25T08:13:26;99310.09;;;16.03;40.58
6194;BME280;3130;41.564;23.280;2024-01-25T08:15:54;99327.53;;;16.22;39.69
6194;BME280;3130;41.564;23.280;2024-01-25T08:18:22;99356.13;;;15.76;39.52
6194;BME280;3130;41.564;23.280;2024-01-25T08:20:50;99240.63;;;13.63;41.64
6194;BME280;3130;41.564;23.280;2024-01-25T08:23:17;99342.88;;;12.97;43.99
6194;BME280;3130;41.564;23.280;2024-01-25T08:25:47;99363.50;;;12.27;46.82
6194;BME280;3130;41.564;23.280;2024-01-25T08:28:14;99291.06;;;11.05;49.54
6194;BME280;3130;41.564;23.280;2024-01-25T08:30:42;99325.44;;;10.72;52.41
6194;BME280;3130;41.564;23.280;2024-01-25T08:33:09;99352.56;;;10.45;54.54
6194;BME280;3130;41.564;23.280;2024-01-25T08:35:37;99270.19;;;9.71;56.36
6194;BME280;3130;41.564;23.280;2024-01-25T08:38:06;99326.50;;;10.04;57.31
6194;BME280;3130;41.564;23.280;2024-01-25T08:40:33;99329.97;;;10.03;57.76
6194;BME280;3130;41.564;23.280;2024-01-25T08:43:02;99323.69;;;11.18;54.53
6194;BME280;3130;41.564;23.280;2024-01-25T08:45:30;99299.31;;;12.12;51.02
6194;BME280;3130;41.564;23.280;2024-01-25T08:47:58;99280.94;;;12.46;48.41
6194;BME280;3130;41.564;23.280;2024-01-25T08:50:26;99297.16;;;12.60;48.58
6194;BME280;3130;41.564;23.280;2024-01-25T08:52:54;99321.63;;;12.11;49.21
6194;BME280;3130;41.564;23.280;2024-01-25T08:55:21;99195.50;;;10.86;49.78
6194;BME280;3130;41.564;23.280;2024-01-25T08:57:49;99188.47;;;10.45;50.68
6194;BME280;3130;41.564;23.280;2024-01-25T09:00:19;99344.16;;;11.34;51.59
6194;BME280;3130;41.564;23.280;2024-01-25T09:02:46;99334.22;;;11.14;51.87
6194;BME280;3130;41.564;23.280;2024-01-25T09:05:14;99298.88;;;10.88;50.48
6194;BME280;3130;41.564;23.280;2024-01-25T09:07:42;99334.44;;;10.63;51.30
6194;BME280;3130;41.564;23.280;2024-01-25T09:10:10;99334.84;;;10.40;52.04
6194;BME280;3130;41.564;23.280;2024-01-25T09:12:39;99329.44;;;9.97;53.60
6194;BME280;3130;41.564;23.280;2024-01-25T09:15:08;99324.31;;;10.14;53.84
6194;BME280;3130;41.564;23.280;2024-01-25T09:17:36;99308.88;;;10.31;54.37
6194;BME280;3130;41.564;23.280;2024-01-25T09:20:04;99228.16;;;10.07;53.38
6194;BME280;3130;41.564;23.280;2024-01-25T09:22:32;99304.34;;;10.67;53.46
6194;BME280;3130;41.564;23.280;2024-01-25T09:25:00;99288.28;;;10.63;53.30
6194;BME280;3130;41.564;23.280;2024-01-25T09:27:28;99265.38;;;10.76;53.39
6194;BME280;3130;41.564;23.280;2024-01-25T09:29:56;99254.94;;;10.94;52.37
6194;BME280;3130;41.564;23.280;2024-01-25T09:32:23;99252.25;;;11.11;51.73
6194;BME280;3130;41.564;23.280;2024-01-25T09:34:53;99274.97;;;11.17;51.44
6194;BME280;3130;41.564;23.280;2024-01-25T09:37:20;99291.59;;;11.25;50.83
6194;BME280;3130;41.564;23.280;2024-01-25T09:39:50;99293.19;;;11.28;51.06
6194;BME280;3130;41.564;23.280;2024-01-25T09:42:19;99284.91;;;11.52;50.52
6194;BME280;3130;41.564;23.280;2024-01-25T09:44:47;99274.34;;;11.72;49.68
6194;BME280;3130;41.564;23.280;2024-01-25T09:47:15;99251.56;;;11.37;50.88
6194;BME280;3130;41.564;23.280;2024-01-25T09:49:45;99215.28;;;10.84;53.18
6194;BME280;3130;41.564;23.280;2024-01-25T09:52:14;99215.66;;;10.78;53.95
6194;BME280;3130;41.564;23.280;2024-01-25T09:54:43;99188.53;;;11.03;53.27
6194;BME280;3130;41.564;23.280;2024-01-25T09:57:14;99121.22;;;10.85;51.99
6194;BME280;3130;41.564;23.280;2024-01-25T09:59:42;99182.47;;;11.48;51.09
6194;BME280;3130;41.564;23.280;2024-01-25T10:02:10;99179.75;;;11.65;49.55
6194;BME280;3130;41.564;23.280;2024-01-25T10:04:38;99166.78;;;11.94;46.84
6194;BME280;3130;41.564;23.280;2024-01-25T10:07:05;99154.06;;;12.19;46.29
6194;BME280;3130;41.564;23.280;2024-01-25T10:09:40;99085.47;;;11.93;46.09
6194;BME280;3130;41.564;23.280;2024-01-25T10:12:08;99170.66;;;12.54;44.94
6194;BME280;3130;41.564;23.280;2024-01-25T10:14:34;99164.84;;;12.38;45.03
6194;BME280;3130;41.564;23.280;2024-01-25T10:17:02;99075.47;;;11.89;44.90
6194;BME280;3130;41.564;23.280;2024-01-25T10:19:30;99181.66;;;12.82;44.28
6194;BME280;3130;41.564;23.280;2024-01-25T10:21:59;99156.84;;;12.81;43.76
6194;BME280;3130;41.564;23.280;2024-01-25T10:24:26;99168.56;;;13.11;42.88
6194;BME280;3130;41.564;23.280;2024-01-25T10:26:56;99146.00;;;12.90;42.31
6194;BME280;3130;41.564;23.280;2024-01-25T10:29:25;99162.53;;;12.86;42.30
6194;BME280;3130;41.564;23.280;2024-01-25T10:31:53;99157.16;;;13.15;42.25
6194;BME280;3130;41.564;23.280;2024-01-25T10:34:20;99173.69;;;12.99;41.97
6194;BME280;3130;41.564;23.280;2024-01-25T10:36:50;99150.13;;;13.30;42.12
6194;BME280;3130;41.564;23.280;2024-01-25T10:39:19;99051.22;;;12.58;41.68
6194;BME280;3130;41.564;23.280;2024-01-25T10:41:48;99134.19;;;13.12;41.43
6194;BME280;3130;41.564;23.280;2024-01-25T10:44:17;99158.34;;;13.10;41.69
6194;BME280;3130;41.564;23.280;2024-01-25T10:46:47;99113.50;;;12.88;41.63
6194;BME280;3130;41.564;23.280;2024-01-25T10:49:15;99129.38;;;12.82;42.03
6194;BME280;3130;41.564;23.280;2024-01-25T10:51:44;99087.16;;;12.72;41.97
6194;BME280;3130;41.564;23.280;2024-01-25T10:54:12;99111.00;;;12.61;42.20
6194;BME280;3130;41.564;23.280;2024-01-25T10:56:41;99104.72;;;12.65;42.67
6194;BME280;3130;41.564;23.280;2024-01-25T10:59:10;99097.47;;;12.45;42.82
6194;BME280;3130;41.564;23.280;2024-01-25T11:01:43;99070.66;;;12.49;42.36
6194;BME280;3130;41.564;23.280;2024-01-25T11:04:12;99098.50;;;12.43;42.31
6194;BME280;3130;41.564;23.280;2024-01-25T11:06:40;99010.50;;;12.25;41.98
6194;BME280;3130;41.564;23.280;2024-01-25T11:09:07;98999.91;;;12.30;42.01
6194;BME280;3130;41.564;23.280;2024-01-25T11:11:36;99083.78;;;12.96;41.23
6194;BME280;3130;41.564;23.280;2024-01-25T11:14:04;99091.03;;;12.91;42.09
6194;BME280;3130;41.564;23.280;2024-01-25T11:16:32;99091.72;;;12.93;41.92
6194;BME280;3130;41.564;23.280;2024-01-25T11:19:01;98999.34;;;12.39;42.43
6194;BME280;3130;41.564;23.280;2024-01-25T11:21:39;99051.53;;;12.53;41.75
6194;BME280;3130;41.564;23.280;2024-01-25T11:24:12;99058.94;;;12.70;42.31
6194;BME280;3130;41.564;23.280;2024-01-25T11:26:41;99080.56;;;12.80;41.84
6194;BME280;3130;41.564;23.280;2024-01-25T11:29:09;99067.63;;;13.07;41.51
6194;BME280;3130;41.564;23.280;2024-01-25T11:31:36;99083.66;;;12.85;42.17
6194;BME280;3130;41.564;23.280;2024-01-25T11:34:05;99087.06;;;12.86;41.33
6194;BME280;3130;41.564;23.280;2024-01-25T11:36:32;99067.47;;;12.71;41.34
6194;BME280;3130;41.564;23.280;2024-01-25T11:39:00;99068.09;;;12.62;41.50
6194;BME280;3130;41.564;23.280;2024-01-25T11:41:27;99066.03;;;12.79;41.79
6194;BME280;3130;41.564;23.280;2024-01-25T11:43:54;99066.63;;;12.97;41.55
6194;BME280;3130;41.564;23.280;2024-01-25T11:46:22;99062.75;;;12.77;41.58
6194;BME280;3130;41.564;23.280;2024-01-25T11:48:49;99014.94;;;12.36;41.29
6194;BME280;3130;41.564;23.280;2024-01-25T11:51:18;99065.31;;;12.77;40.64
6194;BME280;3130;41.564;23.280;2024-01-25T11:53:46;99076.75;;;12.86;40.48
6194;BME280;3130;41.564;23.280;2024-01-25T11:56:16;99088.88;;;12.98;40.91
6194;BME280;3130;41.564;23.280;2024-01-25T11:58:45;99089.78;;;12.97;40.46
6194;BME280;3130;41.564;23.280;2024-01-25T12:01:13;99049.56;;;12.57;40.34
6194;BME280;3130;41.564;23.280;2024-01-25T12:03:41;99094.09;;;12.96;40.83
6194;BME280;3130;41.564;23.280;2024-01-25T12:06:09;99057.25;;;13.08;40.56
6194;BME280;3130;41.564;23.280;2024-01-25T12:08:38;99078.88;;;13.18;40.47
6194;BME280;3130;41.564;23.280;2024-01-25T12:11:06;99076.91;;;13.21;40.69
6194;BME280;3130;41.564;23.280;2024-01-25T12:13:34;99067.44;;;13.22;40.33
6194;BME280;3130;41.564;23.280;2024-01-25T12:16:03;99062.16;;;13.11;40.52
6194;BME280;3130;41.564;23.280;2024-01-25T12:18:30;99038.16;;;12.61;41.00
6194;BME280;3130;41.564;23.280;2024-01-25T12:20:59;99096.56;;;13.22;40.68
6194;BME280;3130;41.564;23.280;2024-01-25T12:23:33;99059.50;;;13.00;40.96
6194;BME280;3130;41.564;23.280;2024-01-25T12:26:04;99054.56;;;12.97;40.51
6194;BME280;3130;41.564;23.280;2024-01-25T12:28:32;99086.78;;;13.03;41.20
6194;BME280;3130;41.564;23.280;2024-01-25T12:31:00;99083.81;;;13.33;40.66
6194;BME280;3130;41.564;23.280;2024-01-25T12:33:29;99079.25;;;13.37;40.42
6194;BME280;3130;41.564;23.280;2024-01-25T12:35:57;99017.06;;;12.93;40.64
6194;BME280;3130;41.564;23.280;2024-01-25T12:38:27;99080.31;;;13.22;41.08
6194;BME280;3130;41.564;23.280;2024-01-25T12:40:55;99089.88;;;13.32;41.53
6194;BME280;3130;41.564;23.280;2024-01-25T12:43:24;99095.75;;;13.22;40.82
6194;BME280;3130;41.564;23.280;2024-01-25T12:45:52;99085.97;;;13.14;41.10
6194;BME280;3130;41.564;23.280;2024-01-25T12:48:19;99073.91;;;13.03;41.00
6194;BME280;3130;41.564;23.280;2024-01-25T12:50:46;99095.44;;;13.02;41.05
6194;BME280;3130;41.564;23.280;2024-01-25T12:53:13;99099.88;;;13.00;40.91
6194;BME280;3130;41.564;23.280;2024-01-25T12:55:42;99075.75;;;13.01;41.03
6194;BME280;3130;41.564;23.280;2024-01-25T12:58:10;99080.00;;;13.14;41.03
6194;BME280;3130;41.564;23.280;2024-01-25T13:00:38;99079.91;;;13.03;40.42
6194;BME280;3130;41.564;23.280;2024-01-25T13:03:06;99082.22;;;12.81;41.09
6194;BME280;3130;41.564;23.280;2024-01-25T13:05:33;99095.69;;;12.85;41.46
6194;BME280;3130;41.564;23.280;2024-01-25T13:08:00;99061.81;;;12.66;41.62
6194;BME280;3130;41.564;23.280;2024-01-25T13:10:28;99075.19;;;12.71;41.74
6194;BME280;3130;41.564;23.280;2024-01-25T13:12:56;99063.47;;;12.79;41.28
6194;BME280;3130;41.564;23.280;2024-01-25T13:15:23;99077.25;;;12.78;41.42
6194;BME280;3130;41.564;23.280;2024-01-25T13:17:53;99098.38;;;12.83;41.48
6194;BME280;3130;41.564;23.280;2024-01-25T13:20:20;99101.16;;;12.80;41.42